0S9

Jefferson County International Airport

Port Townsend, Washington, USA
METAR K0S9 181255Z AUTO 00000KT 10SM CLR 10/09 A2993 RMK AO2
Observed Flight Rules
Jun-18 @ 12:55 UTC (16 minutes ago) Visual Flight Rules
Visibility Clouds
10 miles
  • Clear skies
Temperatures Readings
Current 10°C / 50°F
Dewpoint 9°C / 48°F
Humidity 94%
Altimeter 29.93" Hg
Pressure 1014 hPa
Elevation 33
METAR K0S9 181255Z AUTO 00000KT 10SM CLR 10/09 A2993 RMK AO2
Observed Flight Rules
Jun-18 @ 12:55 UTC
(16 minutes ago)
VFR
Clouds
  • Clear skies
Temperature Dewpoint
10°C / 50°F 9°C / 48°F
Humidity Altimeter Pressure
94% 29.93" Hg 1014 hPa